Terminal Aerodrome Forecast
Issued by NWS Omaha/Valley, NE

Home | Current Version | Previous Version | Graphics & Text | Print | Product List | Glossary On
Versions: 1 2 3 4 5 6 7 8 9 10 11 12 13 14 15 16 17 18
000
FTUS43 KOAX 221720
TAFOFK
TAF
KOFK 221720Z 2218/2318 19019G27KT P6SM FEW250
     FM230400 18014G22KT P6SM FEW250 WS020/19045KT
     FM230900 18011KT P6SM SCT120 WS020/19045KT
     FM231400 17015G23KT P6SM SCT080=

USA.gov is the U.S. government's official web portal to all federal, state and local government web resources and services.